Pagina principale
METAR-TAF:

METAR-TAF

Aeroporti :

Gwadar, Pakistan

latitudine: 25-13-59N, longitudine: 062-19-46E, altezza: 29 m

METAR: mancante

Ora: 21:25 (16:25 UTC)

Previsione

Il bollettino è stato emesso 6 ore e 55 minuti fa, alle 09:30 UTC
Previsione valida dal 05 alle 12 UTC al 06 alle 12 UTC
Vento 5 kt da sud con raffiche fino a 15 kt
Visibilità: 5000 m
foschia
Temporaneamente
dal 06 alle 00 UTC al 06 alle 04 UTC
Vento 5 kt da sud/sud-est
Visibilità: 2000 m
Nubi sparse ad un'altezza di 3000 ft
foschia
A partire da 06 alle 0600 UTC
Vento 5 kt da sud/sud-est con raffiche fino a 15 kt
Visibilità: 6000 m

TAF: OPGD 050930Z 0512/0612 18005G15KT 5000 HZ NSC TEMPO 0600/0604 16005KT 2000 BR SCT030 FM060600 16005G15KT 6000 NSC

Osservazioni e previsioni meteorologiche di più di 4000 aeroporti (messaggi METAR e TAF).

Le stazioni disponibili sono rappresentate dai dischi gialli e rossi sulla carta.

Puntare il mouse per vedere il nome della stazione.

Clicca sopra per visualizzare le osservazioni e previsioni meteorologiche.

Per cambiare la mappa : fare clic sui pulsanti verdi con una croce nera per ingrandire, il pulsante verde con un trattino per diminuire, o sulla freccia verde per le mappe adiacenti.


METAR-TAF: